createdAt,value
2018-06-19T00:01:47.656Z,79.33
2018-06-19T00:04:14.793Z,82.06
2018-06-19T00:06:41.960Z,82.06
2018-06-19T00:09:09.276Z,80.33
2018-06-19T00:11:36.404Z,80.45
2018-06-19T00:14:03.604Z,79.08
2018-06-19T00:16:30.760Z,78.88
2018-06-19T00:18:59.058Z,79.68
2018-06-19T00:21:33.173Z,80.14
2018-06-19T00:24:00.388Z,79.97
2018-06-19T00:26:27.550Z,78.69
2018-06-19T00:28:54.665Z,78.91
2018-06-19T00:31:21.855Z,78.55
2018-06-19T00:33:48.996Z,77.98
2018-06-19T00:36:16.218Z,77.53
2018-06-19T00:38:43.413Z,77.38
2018-06-19T00:41:10.528Z,77.31
2018-06-19T00:43:37.656Z,77.37
2018-06-19T00:46:05.988Z,78.34
2018-06-19T00:48:33.145Z,78.29
2018-06-19T00:51:00.377Z,78.27
2018-06-19T00:53:27.548Z,78.24
2018-06-19T00:56:05.245Z,78.70
2018-06-19T00:58:32.564Z,78.70
2018-06-19T01:00:59.709Z,79.13
2018-06-19T01:03:26.807Z,80.36
2018-06-19T01:05:53.973Z,80.17
2018-06-19T01:08:21.156Z,79.34
2018-06-19T01:10:48.236Z,79.21
2018-06-19T01:13:15.339Z,78.63
2018-06-19T01:15:42.460Z,79.12
2018-06-19T01:18:09.588Z,82.45
2018-06-19T01:20:36.728Z,82.07
2018-06-19T01:23:04.088Z,82.40
2018-06-19T01:25:31.228Z,82.46
2018-06-19T01:27:58.356Z,81.19
2018-06-19T01:30:25.489Z,81.56
2018-06-19T01:32:52.593Z,81.52
2018-06-19T01:35:19.685Z,80.86
2018-06-19T01:37:46.840Z,81.60
2018-06-19T01:40:13.933Z,80.67
2018-06-19T01:42:41.053Z,80.30
2018-06-19T01:45:08.169Z,79.98
2018-06-19T01:47:35.305Z,80.96
2018-06-19T01:50:02.564Z,82.37
2018-06-19T01:52:29.708Z,81.98
2018-06-19T01:54:56.841Z,80.95
2018-06-19T01:57:23.999Z,81.11
2018-06-19T01:59:51.117Z,81.50
2018-06-19T02:02:18.280Z,81.03
2018-06-19T02:04:45.336Z,81.28
2018-06-19T02:07:12.521Z,82.14
2018-06-19T02:09:39.756Z,83.39
2018-06-19T02:12:06.868Z,82.39
2018-06-19T02:14:34.029Z,82.24
2018-06-19T02:17:01.168Z,81.96
2018-06-19T02:19:28.323Z,82.47
2018-06-19T02:21:55.481Z,82.09
2018-06-19T02:24:22.686Z,81.64
2018-06-19T02:26:49.788Z,81.73
2018-06-19T02:29:16.945Z,81.52
2018-06-19T02:31:44.061Z,82.20
2018-06-19T02:34:11.175Z,82.80
2018-06-19T02:36:38.291Z,83.87
2018-06-19T02:39:07.269Z,85.37
2018-06-19T02:41:34.424Z,84.06
2018-06-19T02:44:01.772Z,83.03
2018-06-19T02:46:28.853Z,83.72
2018-06-19T02:48:55.958Z,82.99
2018-06-19T02:51:23.113Z,84.93
2018-06-19T02:53:50.240Z,84.68
2018-06-19T02:56:17.373Z,84.58
2018-06-19T02:58:44.513Z,83.89
2018-06-19T03:01:11.636Z,83.50
2018-06-19T03:03:38.717Z,82.87
2018-06-19T03:06:05.849Z,82.30
2018-06-19T03:08:32.964Z,82.90
2018-06-19T03:11:00.132Z,83.38
2018-06-19T03:13:27.285Z,82.18
2018-06-19T03:15:54.387Z,83.20
2018-06-19T03:18:21.512Z,83.58
2018-06-19T03:20:48.660Z,84.73
2018-06-19T03:23:15.804Z,85.03
2018-06-19T03:25:42.937Z,83.59
2018-06-19T03:28:10.057Z,82.52
2018-06-19T03:30:37.150Z,82.12
2018-06-19T03:33:04.268Z,82.22
2018-06-19T03:35:31.425Z,81.39
2018-06-19T03:37:58.533Z,81.62
2018-06-19T03:40:25.637Z,81.86
2018-06-19T03:42:52.765Z,82.21
2018-06-19T03:45:19.881Z,82.37
2018-06-19T03:47:47.051Z,82.34
2018-06-19T03:50:14.185Z,82.81
2018-06-19T03:52:41.314Z,82.71
2018-06-19T03:55:08.476Z,82.86
2018-06-19T03:57:35.597Z,82.34
2018-06-19T04:00:02.888Z,82.72
2018-06-19T04:02:30.018Z,81.61
2018-06-19T04:04:57.140Z,81.29
2018-06-19T04:07:24.269Z,81.86
2018-06-19T04:09:51.408Z,81.31
2018-06-19T04:12:18.582Z,80.76
2018-06-19T04:14:45.807Z,81.06
2018-06-19T04:17:20.540Z,82.11
2018-06-19T04:19:47.889Z,81.33
2018-06-19T04:22:15.068Z,81.69
2018-06-19T04:24:42.225Z,81.80
2018-06-19T04:27:09.339Z,81.98
2018-06-19T04:29:36.514Z,82.70
2018-06-19T04:32:03.664Z,82.08
2018-06-19T04:34:30.776Z,81.60
2018-06-19T04:36:57.860Z,81.53
2018-06-19T04:39:24.993Z,82.31
2018-06-19T04:41:52.081Z,80.74
2018-06-19T04:44:19.224Z,79.94
2018-06-19T04:46:46.316Z,79.66
2018-06-19T04:49:13.525Z,79.64
2018-06-19T04:51:40.639Z,79.72
2018-06-19T04:54:07.741Z,79.59
2018-06-19T04:56:34.860Z,79.70
2018-06-19T04:59:02.165Z,79.67
2018-06-19T05:01:29.337Z,79.23
2018-06-19T05:03:56.488Z,79.16
2018-06-19T05:06:23.668Z,78.84
2018-06-19T05:08:50.867Z,77.41
2018-06-19T05:11:17.997Z,77.25
2018-06-19T05:13:45.138Z,77.91
2018-06-19T05:16:12.272Z,77.87
2018-06-19T05:18:39.439Z,78.65
2018-06-19T05:21:06.592Z,77.81
2018-06-19T05:23:33.851Z,77.06
2018-06-19T05:26:01.001Z,77.92
2018-06-19T05:28:28.080Z,77.39
2018-06-19T05:30:55.201Z,77.26
2018-06-19T05:33:22.340Z,77.95
2018-06-19T05:35:49.484Z,77.97
2018-06-19T05:38:16.596Z,78.47
2018-06-19T05:40:43.664Z,78.43
2018-06-19T05:43:10.877Z,76.98
2018-06-19T05:45:38.038Z,76.39
2018-06-19T05:48:05.187Z,76.46
2018-06-19T05:50:32.296Z,75.52
2018-06-19T05:52:59.420Z,75.45
2018-06-19T05:55:26.541Z,75.08
2018-06-19T05:57:53.680Z,75.22
2018-06-19T06:00:20.815Z,75.46
2018-06-19T06:02:47.959Z,75.08
2018-06-19T06:05:15.096Z,73.63
2018-06-19T06:07:42.244Z,73.36
2018-06-19T06:10:10.209Z,72.58
2018-06-19T06:12:37.324Z,72.83
2018-06-19T06:15:04.560Z,72.95
2018-06-19T06:17:31.781Z,72.45
2018-06-19T06:19:58.893Z,72.84
2018-06-19T06:22:25.989Z,72.49
2018-06-19T06:24:53.253Z,72.49
2018-06-19T06:27:20.335Z,71.37
2018-06-19T06:29:47.557Z,71.07
2018-06-19T06:32:14.644Z,72.16
2018-06-19T06:34:41.724Z,72.49
2018-06-19T06:37:08.892Z,71.26
2018-06-19T06:39:36.029Z,70.20
2018-06-19T06:42:03.165Z,70.87
2018-06-19T06:44:30.324Z,71.43
2018-06-19T06:46:57.480Z,73.12
2018-06-19T06:49:24.619Z,73.17
2018-06-19T06:51:51.796Z,70.97
2018-06-19T06:54:18.992Z,71.35
2018-06-19T06:56:46.108Z,71.41
2018-06-19T06:59:13.311Z,72.60
2018-06-19T07:01:40.471Z,71.17
2018-06-19T07:04:07.938Z,70.50
2018-06-19T07:06:35.153Z,71.18
2018-06-19T07:09:02.988Z,71.29
2018-06-19T07:11:30.073Z,71.12
2018-06-19T07:13:57.233Z,71.46
2018-06-19T07:16:24.437Z,71.46
2018-06-19T07:18:51.649Z,71.16
2018-06-19T07:21:18.794Z,71.53
2018-06-19T07:23:46.017Z,69.75
2018-06-19T07:26:13.240Z,68.99
2018-06-19T07:28:40.347Z,69.34
2018-06-19T07:31:07.449Z,68.75
2018-06-19T07:33:34.584Z,69.17
2018-06-19T07:36:01.704Z,68.48
2018-06-19T07:38:28.812Z,67.99
2018-06-19T07:40:55.936Z,67.67
2018-06-19T07:43:23.090Z,67.63
2018-06-19T07:45:50.265Z,68.62
2018-06-19T07:48:17.396Z,67.67
2018-06-19T07:50:44.568Z,66.33
2018-06-19T07:53:11.673Z,65.03
2018-06-19T07:55:38.831Z,61.62
2018-06-19T07:58:05.925Z,63.00
2018-06-19T08:00:33.072Z,63.04
2018-06-19T08:03:00.193Z,63.34
2018-06-19T08:05:27.362Z,62.26
2018-06-19T08:07:54.475Z,60.88
2018-06-19T08:10:21.585Z,60.95
2018-06-19T08:12:48.711Z,63.10
2018-06-19T08:15:16.241Z,63.82
2018-06-19T08:17:43.372Z,65.00
2018-06-19T08:20:10.965Z,65.96
2018-06-19T08:22:38.157Z,66.96
2018-06-19T08:25:05.403Z,66.11
2018-06-19T08:27:32.537Z,67.68
2018-06-19T08:29:59.685Z,68.25
2018-06-19T08:32:26.849Z,68.59
2018-06-19T08:34:53.939Z,66.41
2018-06-19T08:37:21.081Z,64.51
2018-06-19T08:39:48.224Z,62.38
2018-06-19T08:42:15.376Z,59.88
2018-06-19T08:44:42.498Z,56.16
2018-06-19T08:47:09.660Z,60.79
2018-06-19T08:49:36.796Z,62.77
2018-06-19T08:52:03.976Z,62.16
2018-06-19T08:54:31.117Z,64.78
2018-06-19T08:56:58.221Z,63.61
2018-06-19T08:59:25.383Z,63.86
2018-06-19T09:01:52.497Z,63.47
2018-06-19T09:04:19.649Z,63.23
2018-06-19T09:06:46.808Z,64.30
2018-06-19T09:09:13.960Z,63.80
2018-06-19T09:11:41.163Z,63.34
2018-06-19T09:14:08.264Z,63.42
2018-06-19T09:16:35.624Z,64.93
2018-06-19T09:19:02.796Z,65.54
2018-06-19T09:21:29.952Z,66.27
2018-06-19T09:23:57.144Z,65.93
2018-06-19T09:26:24.320Z,66.66
2018-06-19T09:28:51.512Z,66.80
2018-06-19T09:31:18.685Z,66.86
2018-06-19T09:33:45.844Z,63.09
2018-06-19T09:36:12.969Z,63.22
2018-06-19T09:38:40.080Z,62.64
2018-06-19T09:41:07.202Z,63.07
2018-06-19T09:43:34.381Z,63.37
2018-06-19T09:46:01.496Z,63.22
2018-06-19T09:48:28.684Z,60.74
2018-06-19T09:50:55.864Z,59.21
2018-06-19T09:53:22.990Z,57.86
2018-06-19T09:55:50.148Z,58.96
2018-06-19T09:58:17.537Z,59.33
2018-06-19T10:00:44.784Z,60.75
2018-06-19T10:03:11.995Z,61.06
2018-06-19T10:05:39.182Z,58.05
2018-06-19T10:08:06.257Z,59.42
2018-06-19T10:10:33.393Z,57.92
2018-06-19T10:13:00.534Z,59.97
2018-06-19T10:15:27.684Z,58.87
2018-06-19T10:17:54.844Z,59.39
2018-06-19T10:20:21.943Z,58.19
2018-06-19T10:22:49.075Z,58.17
2018-06-19T10:25:16.296Z,57.75
2018-06-19T10:27:43.441Z,55.68
2018-06-19T10:30:10.716Z,57.50
2018-06-19T10:32:37.836Z,57.37
2018-06-19T10:35:05.074Z,56.33
2018-06-19T10:37:32.229Z,54.83
2018-06-19T10:40:00.159Z,53.69
2018-06-19T10:42:27.315Z,51.70
2018-06-19T10:44:54.408Z,53.82
2018-06-19T10:47:21.512Z,53.66
2018-06-19T10:49:48.676Z,55.61
2018-06-19T10:52:15.848Z,56.27
2018-06-19T10:54:43.020Z,55.92
2018-06-19T10:57:10.125Z,55.66
2018-06-19T10:59:37.304Z,55.11
2018-06-19T11:02:04.435Z,57.55
2018-06-19T11:04:31.579Z,56.93
2018-06-19T11:06:58.745Z,56.18
2018-06-19T11:09:25.917Z,55.73
2018-06-19T11:11:53.108Z,55.73
2018-06-19T11:14:20.305Z,55.77
2018-06-19T11:16:47.472Z,56.23
2018-06-19T11:19:14.591Z,53.59
2018-06-19T11:21:41.705Z,55.17
2018-06-19T11:24:08.960Z,54.50
2018-06-19T11:26:36.097Z,54.72
2018-06-19T11:29:03.323Z,52.83
2018-06-19T11:31:30.433Z,51.72
2018-06-19T11:33:57.591Z,52.73
2018-06-19T11:36:24.753Z,53.58
2018-06-19T11:38:51.896Z,54.48
2018-06-19T11:41:19.056Z,53.77
2018-06-19T11:43:46.196Z,53.75
2018-06-19T11:46:13.344Z,55.69
2018-06-19T11:48:40.535Z,56.85
2018-06-19T11:51:07.899Z,57.82
2018-06-19T11:53:35.037Z,58.12
2018-06-19T11:56:02.163Z,57.67
2018-06-19T11:58:29.410Z,57.11
2018-06-19T12:00:56.521Z,57.29
2018-06-19T12:03:23.689Z,56.14
2018-06-19T12:05:50.841Z,56.86
2018-06-19T12:08:17.976Z,56.30
2018-06-19T12:10:45.152Z,57.70
2018-06-19T12:13:12.275Z,57.24
2018-06-19T12:15:39.432Z,57.62
2018-06-19T12:18:06.579Z,59.53
2018-06-19T12:20:33.736Z,59.72
2018-06-19T12:23:00.965Z,57.31
2018-06-19T12:25:28.097Z,57.13
2018-06-19T12:27:55.362Z,58.71
2018-06-19T12:30:22.508Z,59.48
2018-06-19T12:32:49.669Z,58.81
2018-06-19T12:35:16.805Z,56.81
2018-06-19T12:37:43.945Z,56.32
2018-06-19T12:40:11.059Z,57.25
2018-06-19T12:42:38.232Z,55.43
2018-06-19T12:45:05.469Z,55.90
2018-06-19T12:47:32.591Z,56.32
2018-06-19T12:50:38.834Z,57.55
2018-06-19T12:53:18.033Z,57.64
2018-06-19T12:55:57.188Z,56.99
2018-06-19T12:58:24.439Z,57.58
2018-06-19T13:00:51.637Z,58.63
2018-06-19T13:03:30.381Z,58.17
2018-06-19T13:06:09.454Z,57.14
2018-06-19T13:08:36.677Z,57.52
2018-06-19T13:11:04.594Z,57.36
2018-06-19T13:13:43.173Z,56.06
2018-06-19T13:16:21.925Z,55.67
2018-06-19T13:19:00.533Z,57.81
2018-06-19T13:21:27.739Z,58.58
2018-06-19T13:23:54.965Z,57.97
2018-06-19T13:26:22.160Z,56.46
2018-06-19T13:30:01.000Z,55.75
2018-06-19T13:32:28.534Z,55.67
2018-06-19T13:34:55.700Z,53.80
2018-06-19T13:37:22.859Z,52.70
2018-06-19T13:41:07.890Z,53.16
2018-06-19T13:43:46.790Z,53.45
2018-06-19T13:46:13.984Z,53.51
2018-06-19T13:48:41.838Z,52.04
2018-06-19T13:51:09.504Z,49.78
2018-06-19T13:53:36.678Z,48.64
2018-06-19T13:57:19.768Z,51.77
2018-06-19T13:59:46.904Z,52.92
2018-06-19T14:02:14.037Z,53.37
2018-06-19T14:04:41.200Z,53.59
2018-06-19T14:07:08.344Z,53.55
2018-06-19T14:09:48.241Z,54.52
2018-06-19T14:12:29.082Z,54.86
2018-06-19T14:14:56.234Z,53.16
2018-06-19T14:17:24.292Z,54.74
2018-06-19T14:19:52.263Z,54.56
2018-06-19T14:22:19.435Z,54.49
2018-06-19T14:24:46.649Z,54.44
2018-06-19T14:27:14.037Z,53.96
2018-06-19T14:29:41.365Z,53.80
2018-06-19T14:32:08.500Z,54.90
2018-06-19T14:34:35.576Z,53.59
2018-06-19T14:37:02.922Z,52.99
2018-06-19T14:39:30.065Z,54.84
2018-06-19T14:41:57.220Z,56.84
2018-06-19T14:44:25.156Z,57.26
2018-06-19T14:46:52.611Z,57.42
2018-06-19T14:49:19.880Z,58.24
2018-06-19T14:51:47.012Z,56.64
2018-06-19T14:54:14.137Z,56.98
2018-06-19T14:56:41.291Z,56.33
2018-06-19T14:59:08.436Z,56.80
2018-06-19T15:01:35.589Z,54.79
2018-06-19T15:04:02.725Z,53.59
2018-06-19T15:06:29.849Z,51.75
2018-06-19T15:08:56.955Z,49.59
2018-06-19T15:11:24.157Z,46.72
2018-06-19T15:13:51.293Z,46.72
2018-06-19T15:16:18.467Z,47.23
2018-06-19T15:18:45.768Z,50.94
2018-06-19T15:21:12.947Z,49.94
2018-06-19T15:23:40.123Z,47.38
2018-06-19T15:26:07.287Z,44.65
2018-06-19T15:28:34.540Z,46.45
2018-06-19T15:31:01.834Z,49.07
2018-06-19T15:33:29.023Z,49.85
2018-06-19T15:35:56.132Z,49.87
2018-06-19T15:38:23.681Z,50.79
2018-06-19T15:40:50.857Z,51.61
2018-06-19T15:43:18.025Z,50.83
2018-06-19T15:45:45.189Z,51.18
2018-06-19T15:48:12.338Z,51.64
2018-06-19T15:50:39.457Z,52.36
2018-06-19T15:53:06.901Z,52.81
2018-06-19T15:55:33.999Z,53.31
2018-06-19T15:58:01.162Z,53.02
2018-06-19T16:00:28.296Z,53.00
2018-06-19T16:02:55.436Z,52.13
2018-06-19T16:05:22.562Z,52.56
2018-06-19T16:07:55.477Z,53.66
2018-06-19T16:10:22.650Z,53.32
2018-06-19T16:12:49.804Z,53.54
2018-06-19T16:15:16.924Z,53.66
2018-06-19T16:17:44.141Z,53.28
2018-06-19T16:20:11.298Z,53.59
2018-06-19T16:22:38.557Z,53.41
2018-06-19T16:25:05.712Z,52.08
2018-06-19T16:27:32.852Z,52.66
2018-06-19T16:30:00.138Z,52.80
2018-06-19T16:32:27.297Z,53.26
2018-06-19T16:34:54.416Z,51.48
2018-06-19T16:37:21.608Z,50.59
2018-06-19T16:39:48.796Z,50.20
2018-06-19T16:42:15.963Z,50.03
2018-06-19T16:44:43.111Z,50.66
2018-06-19T16:47:10.318Z,51.21
2018-06-19T16:49:37.474Z,50.91
2018-06-19T16:52:04.657Z,51.02
2018-06-19T16:54:31.835Z,51.07
2018-06-19T16:56:59.014Z,51.87
2018-06-19T16:59:26.260Z,53.18
2018-06-19T17:01:53.511Z,52.05
2018-06-19T17:04:20.722Z,52.36
2018-06-19T17:06:47.883Z,53.18
2018-06-19T17:09:15.046Z,53.44
2018-06-19T17:11:42.198Z,52.96
2018-06-19T17:14:09.305Z,52.95
2018-06-19T17:16:36.511Z,53.31
2018-06-19T17:19:04.009Z,53.57
2018-06-19T17:21:31.168Z,54.64
2018-06-19T17:23:58.592Z,53.75
2018-06-19T17:26:25.756Z,52.60
2018-06-19T17:28:52.960Z,53.58
2018-06-19T17:31:20.141Z,52.93
2018-06-19T17:33:47.288Z,54.07
2018-06-19T17:36:14.471Z,56.18
2018-06-19T17:38:41.669Z,55.05
2018-06-19T17:41:09.251Z,54.53
2018-06-19T17:43:36.465Z,55.89
2018-06-19T17:46:03.927Z,55.37
2018-06-19T17:48:31.121Z,56.27
2018-06-19T17:50:58.244Z,54.99
2018-06-19T17:53:25.666Z,54.98
2018-06-19T17:55:52.825Z,56.33
2018-06-19T17:58:19.979Z,56.12
2018-06-19T18:00:47.194Z,55.74
2018-06-19T18:03:14.378Z,55.72
2018-06-19T18:05:41.587Z,56.37
2018-06-19T18:08:08.741Z,57.02
2018-06-19T18:10:35.974Z,57.05
2018-06-19T18:13:03.176Z,56.37
2018-06-19T18:15:30.324Z,57.36
2018-06-19T18:17:57.488Z,56.14
2018-06-19T18:20:24.621Z,57.13
2018-06-19T18:22:51.860Z,57.33
2018-06-19T18:25:18.956Z,57.11
2018-06-19T18:27:46.149Z,57.09
2018-06-19T18:30:13.388Z,59.00
2018-06-19T18:32:40.606Z,59.05
2018-06-19T18:35:10.363Z,58.64
2018-06-19T18:37:37.477Z,59.28
2018-06-19T18:40:04.665Z,60.06
2018-06-19T18:42:31.819Z,58.71
2018-06-19T18:44:59.069Z,59.12
2018-06-19T18:47:26.223Z,58.51
2018-06-19T18:49:53.385Z,58.40
2018-06-19T18:52:20.573Z,58.62
2018-06-19T18:54:47.770Z,59.55
2018-06-19T18:57:14.941Z,59.10
2018-06-19T18:59:42.156Z,58.78
2018-06-19T19:02:09.447Z,59.89
2018-06-19T19:04:36.648Z,60.47
2018-06-19T19:07:03.874Z,60.38
2018-06-19T19:09:31.090Z,60.39
2018-06-19T19:11:58.417Z,60.12
2018-06-19T19:14:29.475Z,61.37
2018-06-19T19:17:02.356Z,60.98
2018-06-19T19:19:29.506Z,61.33
2018-06-19T19:21:56.680Z,61.91
2018-06-19T19:24:23.854Z,62.88
2018-06-19T19:26:57.033Z,61.65
2018-06-19T19:29:30.084Z,62.67
2018-06-19T19:31:57.311Z,62.74
2018-06-19T19:34:24.510Z,63.49
2018-06-19T19:36:57.410Z,64.08
2018-06-19T19:39:28.278Z,64.98
2018-06-19T19:41:55.453Z,65.58
2018-06-19T19:44:22.692Z,65.92
2018-06-19T19:46:55.611Z,64.79
2018-06-19T19:49:22.801Z,64.17
2018-06-19T19:51:50.073Z,64.95
2018-06-19T19:54:17.308Z,65.21
2018-06-19T19:56:50.240Z,66.88
2018-06-19T19:59:17.564Z,66.36
2018-06-19T20:01:44.832Z,67.08
2018-06-19T20:04:12.000Z,67.25
2018-06-19T20:06:39.192Z,67.30
2018-06-19T20:09:07.389Z,67.93
2018-06-19T20:11:35.238Z,68.69
2018-06-19T20:14:02.551Z,69.71
2018-06-19T20:16:29.711Z,69.56
2018-06-19T20:18:56.860Z,70.30
2018-06-19T20:21:23.969Z,69.80
2018-06-19T20:23:51.145Z,67.62
2018-06-19T20:26:18.273Z,67.14
2018-06-19T20:28:45.488Z,67.31
2018-06-19T20:33:46.729Z,70.12
2018-06-19T20:36:13.836Z,71.02
2018-06-19T20:38:41.003Z,71.48
2018-06-19T20:41:08.113Z,71.97
2018-06-19T20:43:35.331Z,72.00
2018-06-19T20:46:02.520Z,72.52
2018-06-19T20:48:29.719Z,73.27
2018-06-19T20:50:56.909Z,73.96
2018-06-19T20:53:24.112Z,74.45
2018-06-19T20:55:51.320Z,74.23
2018-06-19T20:58:18.496Z,74.14
2018-06-19T21:00:45.645Z,74.07
2018-06-19T21:03:12.873Z,73.83
2018-06-19T21:05:40.016Z,74.63
2018-06-19T21:08:07.340Z,75.42
2018-06-19T21:10:34.498Z,75.45
2018-06-19T21:13:01.664Z,76.09
2018-06-19T21:15:29.193Z,75.81
2018-06-19T21:17:56.345Z,75.19
2018-06-19T21:20:23.461Z,75.76
2018-06-19T21:22:50.589Z,75.90
2018-06-19T21:25:17.727Z,76.15
2018-06-19T21:27:44.827Z,76.80
2018-06-19T21:30:12.012Z,79.08
2018-06-19T21:32:39.247Z,80.53
2018-06-19T21:35:06.422Z,79.49
2018-06-19T21:37:33.556Z,78.23
2018-06-19T21:40:00.733Z,77.63
2018-06-19T21:42:27.949Z,77.09
2018-06-19T21:44:55.076Z,76.85
2018-06-19T21:47:22.215Z,76.94
2018-06-19T21:49:49.400Z,77.40
2018-06-19T21:52:16.588Z,78.36
2018-06-19T21:54:43.746Z,77.91
2018-06-19T21:57:10.896Z,77.37
2018-06-19T21:59:38.017Z,76.93
2018-06-19T22:02:05.151Z,77.30
2018-06-19T22:04:32.363Z,78.17
2018-06-19T22:06:59.586Z,77.35
2018-06-19T22:09:26.773Z,78.09
2018-06-19T22:11:53.915Z,78.04
2018-06-19T22:14:21.089Z,77.82
2018-06-19T22:16:48.264Z,78.53
2018-06-19T22:19:15.447Z,79.19
2018-06-19T22:21:42.560Z,79.47
2018-06-19T22:24:09.688Z,79.25
2018-06-19T22:26:36.868Z,79.91
2018-06-19T22:29:04.149Z,79.68
2018-06-19T22:31:31.323Z,78.98
2018-06-19T22:33:58.452Z,79.20
2018-06-19T22:36:25.673Z,79.00
2018-06-19T22:38:52.788Z,78.86
2018-06-19T22:41:19.963Z,82.09
2018-06-19T22:43:47.147Z,83.13
2018-06-19T22:46:14.335Z,82.69
2018-06-19T22:48:41.468Z,82.56
2018-06-19T22:51:08.614Z,81.89
2018-06-19T22:53:35.749Z,82.82
2018-06-19T22:56:02.929Z,83.54
2018-06-19T22:58:30.087Z,82.25
2018-06-19T23:00:57.241Z,81.55
2018-06-19T23:03:24.411Z,80.66
2018-06-19T23:05:51.520Z,83.01
2018-06-19T23:08:18.704Z,84.88
2018-06-19T23:10:45.820Z,84.28
2018-06-19T23:13:12.981Z,84.29
2018-06-19T23:15:40.089Z,82.90
2018-06-19T23:18:07.279Z,83.18
2018-06-19T23:20:34.423Z,83.85
2018-06-19T23:23:01.569Z,84.70
2018-06-19T23:25:28.705Z,84.10
2018-06-19T23:27:55.856Z,83.88
2018-06-19T23:30:23.045Z,82.38
2018-06-19T23:32:50.173Z,81.67
2018-06-19T23:35:17.310Z,81.70
2018-06-19T23:37:44.494Z,81.76
2018-06-19T23:40:11.711Z,82.87
2018-06-19T23:42:38.903Z,84.99
2018-06-19T23:45:06.078Z,85.06
2018-06-19T23:47:33.837Z,85.84
2018-06-19T23:50:00.955Z,85.69
2018-06-19T23:52:28.541Z,85.05
2018-06-19T23:54:55.696Z,85.61
2018-06-19T23:57:23.147Z,84.83
2018-06-19T23:59:50.351Z,85.68
